sensor_id;sensor_type;location;lat;lon;timestamp;pressure;altitude;pressure_sealevel;temperature;humidity
50356;BME280;36264;51.296;-0.602;2023-02-19T00:01:19;102055.59;;;11.83;100.00
50356;BME280;36264;51.296;-0.602;2023-02-19T00:04:12;102060.69;;;11.88;100.00
50356;BME280;36264;51.296;-0.602;2023-02-19T00:06:38;102065.19;;;11.78;100.00
50356;BME280;36264;51.296;-0.602;2023-02-19T00:09:04;102069.63;;;11.71;100.00
50356;BME280;36264;51.296;-0.602;2023-02-19T00:11:31;102064.38;;;11.74;100.00
50356;BME280;36264;51.296;-0.602;2023-02-19T00:13:58;102065.25;;;11.73;100.00
50356;BME280;36264;51.296;-0.602;2023-02-19T00:16:27;102057.59;;;11.66;100.00
50356;BME280;36264;51.296;-0.602;2023-02-19T00:18:53;102069.75;;;11.64;100.00
50356;BME280;36264;51.296;-0.602;2023-02-19T00:21:19;102074.22;;;11.54;100.00
50356;BME280;36264;51.296;-0.602;2023-02-19T00:23:52;102078.50;;;11.58;100.00
50356;BME280;36264;51.296;-0.602;2023-02-19T00:26:18;102081.97;;;11.57;100.00
50356;BME280;36264;51.296;-0.602;2023-02-19T00:28:45;102100.81;;;11.76;100.00
50356;BME280;36264;51.296;-0.602;2023-02-19T00:33:46;102103.38;;;11.77;100.00
50356;BME280;36264;51.296;-0.602;2023-02-19T00:36:12;102091.41;;;11.66;100.00
50356;BME280;36264;51.296;-0.602;2023-02-19T00:38:39;102108.78;;;11.64;100.00
50356;BME280;36264;51.296;-0.602;2023-02-19T00:41:05;102114.94;;;11.58;100.00
50356;BME280;36264;51.296;-0.602;2023-02-19T00:43:50;102121.84;;;11.59;100.00
50356;BME280;36264;51.296;-0.602;2023-02-19T00:46:21;102117.53;;;11.58;100.00
50356;BME280;36264;51.296;-0.602;2023-02-19T00:48:47;102123.63;;;11.55;100.00
50356;BME280;36264;51.296;-0.602;2023-02-19T00:51:13;102121.03;;;11.55;100.00
50356;BME280;36264;51.296;-0.602;2023-02-19T00:53:38;102121.94;;;11.51;100.00
50356;BME280;36264;51.296;-0.602;2023-02-19T00:56:05;102123.63;;;11.55;100.00
50356;BME280;36264;51.296;-0.602;2023-02-19T00:58:30;102121.00;;;11.58;100.00
50356;BME280;36264;51.296;-0.602;2023-02-19T01:00:56;102122.78;;;11.55;100.00
50356;BME280;36264;51.296;-0.602;2023-02-19T01:03:21;102108.13;;;11.48;100.00
50356;BME280;36264;51.296;-0.602;2023-02-19T01:05:48;102123.59;;;11.60;100.00
50356;BME280;36264;51.296;-0.602;2023-02-19T01:08:13;102128.75;;;11.62;100.00
50356;BME280;36264;51.296;-0.602;2023-02-19T01:10:39;102133.09;;;11.63;100.00
50356;BME280;36264;51.296;-0.602;2023-02-19T01:13:04;102133.13;;;11.59;100.00
50356;BME280;36264;51.296;-0.602;2023-02-19T01:15:32;102139.13;;;11.66;100.00
50356;BME280;36264;51.296;-0.602;2023-02-19T01:17:57;102131.34;;;11.65;100.00
50356;BME280;36264;51.296;-0.602;2023-02-19T01:20:22;102117.53;;;11.59;100.00
50356;BME280;36264;51.296;-0.602;2023-02-19T01:22:48;102132.25;;;11.60;100.00
50356;BME280;36264;51.296;-0.602;2023-02-19T01:25:13;102132.22;;;11.62;100.00
50356;BME280;36264;51.296;-0.602;2023-02-19T01:27:39;102141.84;;;11.57;100.00
50356;BME280;36264;51.296;-0.602;2023-02-19T01:30:04;102135.84;;;11.52;100.00
50356;BME280;36264;51.296;-0.602;2023-02-19T01:32:30;102137.53;;;11.53;100.00
50356;BME280;36264;51.296;-0.602;2023-02-19T01:34:55;102136.78;;;11.45;100.00
50356;BME280;36264;51.296;-0.602;2023-02-19T01:37:20;102146.34;;;11.44;100.00
50356;BME280;36264;51.296;-0.602;2023-02-19T01:39:46;102144.59;;;11.43;100.00
50356;BME280;36264;51.296;-0.602;2023-02-19T01:42:13;102150.75;;;11.37;100.00
50356;BME280;36264;51.296;-0.602;2023-02-19T01:47:04;102149.03;;;11.36;100.00
50356;BME280;36264;51.296;-0.602;2023-02-19T01:49:36;102144.66;;;11.38;100.00
50356;BME280;36264;51.296;-0.602;2023-02-19T01:54:31;102157.72;;;11.34;100.00
50356;BME280;36264;51.296;-0.602;2023-02-19T01:56:59;102155.28;;;11.21;100.00
50356;BME280;36264;51.296;-0.602;2023-02-19T01:59:26;102155.38;;;11.11;100.00
50356;BME280;36264;51.296;-0.602;2023-02-19T02:01:51;102158.06;;;11.03;100.00
50356;BME280;36264;51.296;-0.602;2023-02-19T02:04:17;102154.66;;;10.96;100.00
50356;BME280;36264;51.296;-0.602;2023-02-19T02:06:51;102149.53;;;10.90;100.00
50356;BME280;36264;51.296;-0.602;2023-02-19T02:09:18;102141.84;;;10.76;100.00
50356;BME280;36264;51.296;-0.602;2023-02-19T02:12:03;102151.50;;;10.65;100.00
50356;BME280;36264;51.296;-0.602;2023-02-19T02:14:33;102153.31;;;10.55;100.00
50356;BME280;36264;51.296;-0.602;2023-02-19T02:17:24;102152.53;;;10.44;100.00
50356;BME280;36264;51.296;-0.602;2023-02-19T02:30:54;102174.25;;;10.35;100.00
50356;BME280;36264;51.296;-0.602;2023-02-19T02:36:17;102176.91;;;10.18;100.00
50356;BME280;36264;51.296;-0.602;2023-02-19T02:38:45;102176.13;;;10.05;100.00
50356;BME280;36264;51.296;-0.602;2023-02-19T02:41:13;102180.50;;;10.00;100.00
50356;BME280;36264;51.296;-0.602;2023-02-19T02:43:39;102185.72;;;9.92;100.00
50356;BME280;36264;51.296;-0.602;2023-02-19T02:46:05;102184.03;;;9.85;100.00
50356;BME280;36264;51.296;-0.602;2023-02-19T02:54:15;102187.56;;;9.67;100.00
50356;BME280;36264;51.296;-0.602;2023-02-19T02:57:02;102191.94;;;9.56;100.00
50356;BME280;36264;51.296;-0.602;2023-02-19T02:59:31;102193.69;;;9.49;100.00
50356;BME280;36264;51.296;-0.602;2023-02-19T03:02:17;102194.59;;;9.37;100.00
50356;BME280;36264;51.296;-0.602;2023-02-19T03:07:45;102194.59;;;9.39;100.00
50356;BME280;36264;51.296;-0.602;2023-02-19T03:10:16;102190.25;;;9.42;100.00
50356;BME280;36264;51.296;-0.602;2023-02-19T03:12:43;102191.13;;;9.45;100.00
50356;BME280;36264;51.296;-0.602;2023-02-19T03:15:32;102197.16;;;9.47;100.00
50356;BME280;36264;51.296;-0.602;2023-02-19T03:18:20;102190.28;;;9.41;100.00
50356;BME280;36264;51.296;-0.602;2023-02-19T03:21:06;102207.59;;;9.34;100.00
50356;BME280;36264;51.296;-0.602;2023-02-19T03:23:34;102213.63;;;9.35;100.00
50356;BME280;36264;51.296;-0.602;2023-02-19T03:26:20;102208.44;;;9.30;100.00
50356;BME280;36264;51.296;-0.602;2023-02-19T03:28:47;102209.31;;;9.28;100.00
50356;BME280;36264;51.296;-0.602;2023-02-19T03:31:34;102208.44;;;9.29;100.00
50356;BME280;36264;51.296;-0.602;2023-02-19T03:34:05;102212.75;;;9.34;100.00
50356;BME280;36264;51.296;-0.602;2023-02-19T03:36:38;102221.38;;;9.41;100.00
50356;BME280;36264;51.296;-0.602;2023-02-19T03:39:07;102223.09;;;9.45;100.00
50356;BME280;36264;51.296;-0.602;2023-02-19T03:44:17;102230.84;;;9.51;100.00
50356;BME280;36264;51.296;-0.602;2023-02-19T03:49:28;102233.44;;;9.60;100.00
50356;BME280;36264;51.296;-0.602;2023-02-19T03:52:06;102228.22;;;9.64;100.00
50356;BME280;36264;51.296;-0.602;2023-02-19T03:54:56;102241.19;;;9.64;100.00
50356;BME280;36264;51.296;-0.602;2023-02-19T04:02:59;102248.16;;;9.58;100.00
50356;BME280;36264;51.296;-0.602;2023-02-19T04:05:29;102250.75;;;9.52;100.00
50356;BME280;36264;51.296;-0.602;2023-02-19T04:08:03;102253.34;;;9.46;100.00
50356;BME280;36264;51.296;-0.602;2023-02-19T04:10:30;102250.78;;;9.38;100.00
50356;BME280;36264;51.296;-0.602;2023-02-19T04:13:04;102261.16;;;9.38;100.00
50356;BME280;36264;51.296;-0.602;2023-02-19T04:15:32;102259.41;;;9.47;100.00
50356;BME280;36264;51.296;-0.602;2023-02-19T04:18:07;102265.44;;;9.58;100.00
50356;BME280;36264;51.296;-0.602;2023-02-19T04:20:38;102267.16;;;9.62;100.00
50356;BME280;36264;51.296;-0.602;2023-02-19T04:23:04;102274.06;;;9.65;100.00
50356;BME280;36264;51.296;-0.602;2023-02-19T04:25:31;102275.81;;;9.56;100.00
50356;BME280;36264;51.296;-0.602;2023-02-19T04:27:57;102277.53;;;9.59;100.00
50356;BME280;36264;51.296;-0.602;2023-02-19T04:30:23;102287.91;;;9.67;100.00
50356;BME280;36264;51.296;-0.602;2023-02-19T04:32:48;102289.63;;;9.69;100.00
50356;BME280;36264;51.296;-0.602;2023-02-19T04:35:14;102300.84;;;9.73;100.00
50356;BME280;36264;51.296;-0.602;2023-02-19T04:37:39;102302.59;;;9.77;100.00
50356;BME280;36264;51.296;-0.602;2023-02-19T04:40:05;102298.25;;;9.76;100.00
50356;BME280;36264;51.296;-0.602;2023-02-19T04:42:31;102294.81;;;9.74;100.00
50356;BME280;36264;51.296;-0.602;2023-02-19T04:44:56;102296.53;;;9.67;100.00
50356;BME280;36264;51.296;-0.602;2023-02-19T04:47:21;102306.91;;;9.63;100.00
50356;BME280;36264;51.296;-0.602;2023-02-19T04:49:47;102307.81;;;9.58;100.00
50356;BME280;36264;51.296;-0.602;2023-02-19T04:52:12;102309.56;;;9.50;100.00
50356;BME280;36264;51.296;-0.602;2023-02-19T04:54:37;102312.16;;;9.41;100.00
50356;BME280;36264;51.296;-0.602;2023-02-19T04:57:03;102306.13;;;9.30;100.00
50356;BME280;36264;51.296;-0.602;2023-02-19T04:59:28;102314.75;;;9.24;100.00
50356;BME280;36264;51.296;-0.602;2023-02-19T05:01:54;102313.03;;;9.17;100.00
50356;BME280;36264;51.296;-0.602;2023-02-19T05:04:19;102314.75;;;9.07;100.00
50356;BME280;36264;51.296;-0.602;2023-02-19T05:06:45;102326.84;;;9.10;100.00
50356;BME280;36264;51.296;-0.602;2023-02-19T05:09:10;102332.03;;;9.14;100.00
50356;BME280;36264;51.296;-0.602;2023-02-19T05:11:36;102336.38;;;9.17;100.00
50356;BME280;36264;51.296;-0.602;2023-02-19T05:14:01;102336.38;;;9.18;100.00
50356;BME280;36264;51.296;-0.602;2023-02-19T05:16:27;102339.81;;;9.17;100.00
50356;BME280;36264;51.296;-0.602;2023-02-19T05:18:52;102339.81;;;9.20;100.00
50356;BME280;36264;51.296;-0.602;2023-02-19T05:21:17;102337.22;;;9.19;100.00
50356;BME280;36264;51.296;-0.602;2023-02-19T05:23:43;102346.72;;;9.24;100.00
50356;BME280;36264;51.296;-0.602;2023-02-19T05:26:12;102345.00;;;9.33;100.00
50356;BME280;36264;51.296;-0.602;2023-02-19T05:28:37;102349.31;;;9.29;100.00
50356;BME280;36264;51.296;-0.602;2023-02-19T05:31:05;102351.06;;;9.35;100.00
50356;BME280;36264;51.296;-0.602;2023-02-19T05:33:32;102355.38;;;9.30;100.00
50356;BME280;36264;51.296;-0.602;2023-02-19T05:35:58;102353.66;;;9.30;100.00
50356;BME280;36264;51.296;-0.602;2023-02-19T05:38:23;102343.28;;;9.32;100.00
50356;BME280;36264;51.296;-0.602;2023-02-19T05:40:49;102343.28;;;9.38;100.00
50356;BME280;36264;51.296;-0.602;2023-02-19T05:43:15;102350.16;;;9.40;100.00
50356;BME280;36264;51.296;-0.602;2023-02-19T05:45:41;102362.28;;;9.49;100.00
50356;BME280;36264;51.296;-0.602;2023-02-19T05:48:07;102357.94;;;9.50;100.00
50356;BME280;36264;51.296;-0.602;2023-02-19T05:50:34;102362.28;;;9.54;100.00
50356;BME280;36264;51.296;-0.602;2023-02-19T05:53:00;102351.91;;;9.55;100.00
50356;BME280;36264;51.296;-0.602;2023-02-19T05:55:27;102355.34;;;9.60;100.00
50356;BME280;36264;51.296;-0.602;2023-02-19T05:57:52;102352.75;;;9.59;100.00
50356;BME280;36264;51.296;-0.602;2023-02-19T06:00:18;102352.75;;;9.60;100.00
50356;BME280;36264;51.296;-0.602;2023-02-19T06:02:44;102357.09;;;9.55;100.00
50356;BME280;36264;51.296;-0.602;2023-02-19T06:05:10;102349.31;;;9.52;100.00
50356;BME280;36264;51.296;-0.602;2023-02-19T06:07:36;102354.50;;;9.54;100.00
50356;BME280;36264;51.296;-0.602;2023-02-19T06:10:04;102361.44;;;9.56;100.00
50356;BME280;36264;51.296;-0.602;2023-02-19T06:12:30;102361.44;;;9.50;100.00
50356;BME280;36264;51.296;-0.602;2023-02-19T06:14:55;102364.03;;;9.36;100.00
50356;BME280;36264;51.296;-0.602;2023-02-19T06:17:21;102365.75;;;9.25;100.00
50356;BME280;36264;51.296;-0.602;2023-02-19T06:19:46;102376.09;;;9.16;100.00
50356;BME280;36264;51.296;-0.602;2023-02-19T06:22:13;102372.66;;;9.09;100.00
50356;BME280;36264;51.296;-0.602;2023-02-19T06:24:38;102380.41;;;9.03;100.00
50356;BME280;36264;51.296;-0.602;2023-02-19T06:27:07;102379.53;;;9.07;100.00
50356;BME280;36264;51.296;-0.602;2023-02-19T06:29:33;102390.78;;;9.00;100.00
50356;BME280;36264;51.296;-0.602;2023-02-19T06:31:59;102383.84;;;8.94;100.00
50356;BME280;36264;51.296;-0.602;2023-02-19T06:34:25;102391.63;;;8.96;100.00
50356;BME280;36264;51.296;-0.602;2023-02-19T06:36:51;102394.19;;;8.86;100.00
50356;BME280;36264;51.296;-0.602;2023-02-19T06:39:16;102395.06;;;8.85;100.00
50356;BME280;36264;51.296;-0.602;2023-02-19T06:41:42;102392.47;;;8.87;100.00
50356;BME280;36264;51.296;-0.602;2023-02-19T06:44:08;102392.50;;;8.95;100.00
50356;BME280;36264;51.296;-0.602;2023-02-19T06:46:33;102402.88;;;8.95;100.00
50356;BME280;36264;51.296;-0.602;2023-02-19T06:48:59;102409.78;;;9.03;100.00
50356;BME280;36264;51.296;-0.602;2023-02-19T06:51:25;102414.13;;;9.09;100.00
50356;BME280;36264;51.296;-0.602;2023-02-19T06:53:52;102414.97;;;9.10;100.00
50356;BME280;36264;51.296;-0.602;2023-02-19T06:56:32;102404.63;;;9.14;100.00
50356;BME280;36264;51.296;-0.602;2023-02-19T06:59:00;102403.75;;;9.12;100.00
50356;BME280;36264;51.296;-0.602;2023-02-19T07:01:27;102398.56;;;9.06;100.00
50356;BME280;36264;51.296;-0.602;2023-02-19T07:03:53;102402.00;;;9.08;100.00
50356;BME280;36264;51.296;-0.602;2023-02-19T07:06:20;102390.81;;;9.11;100.00
50356;BME280;36264;51.296;-0.602;2023-02-19T07:08:46;102402.00;;;9.00;100.00
50356;BME280;36264;51.296;-0.602;2023-02-19T07:11:11;102407.19;;;9.00;100.00
50356;BME280;36264;51.296;-0.602;2023-02-19T07:13:37;102416.69;;;9.00;100.00
50356;BME280;36264;51.296;-0.602;2023-02-19T07:16:04;102421.00;;;9.05;100.00
50356;BME280;36264;51.296;-0.602;2023-02-19T07:18:32;102413.25;;;8.98;100.00
50356;BME280;36264;51.296;-0.602;2023-02-19T07:21:04;102427.09;;;9.07;100.00
50356;BME280;36264;51.296;-0.602;2023-02-19T07:23:30;102430.50;;;9.00;100.00
50356;BME280;36264;51.296;-0.602;2023-02-19T07:25:56;102438.28;;;9.03;100.00
50356;BME280;36264;51.296;-0.602;2023-02-19T07:28:21;102440.03;;;9.07;100.00
50356;BME280;36264;51.296;-0.602;2023-02-19T07:30:47;102451.25;;;9.06;100.00
50356;BME280;36264;51.296;-0.602;2023-02-19T07:33:12;102464.22;;;9.08;100.00
50356;BME280;36264;51.296;-0.602;2023-02-19T07:35:44;102458.19;;;9.12;100.00
50356;BME280;36264;51.296;-0.602;2023-02-19T07:38:10;102453.84;;;9.06;100.00
50356;BME280;36264;51.296;-0.602;2023-02-19T07:40:35;102452.09;;;9.04;100.00
50356;BME280;36264;51.296;-0.602;2023-02-19T07:43:01;102442.56;;;8.91;100.00
50356;BME280;36264;51.296;-0.602;2023-02-19T07:45:26;102469.38;;;8.97;100.00
50356;BME280;36264;51.296;-0.602;2023-02-19T07:47:52;102469.38;;;8.97;100.00
50356;BME280;36264;51.296;-0.602;2023-02-19T07:50:17;102471.13;;;9.00;100.00
50356;BME280;36264;51.296;-0.602;2023-02-19T07:52:42;102484.94;;;9.05;100.00
50356;BME280;36264;51.296;-0.602;2023-02-19T07:55:08;102484.97;;;9.10;100.00
50356;BME280;36264;51.296;-0.602;2023-02-19T07:57:33;102489.31;;;9.11;100.00
50356;BME280;36264;51.296;-0.602;2023-02-19T07:59:58;102476.34;;;9.14;100.00
50356;BME280;36264;51.296;-0.602;2023-02-19T08:02:24;102478.06;;;9.16;100.00
50356;BME280;36264;51.296;-0.602;2023-02-19T08:05:08;102484.16;;;9.20;100.00
50356;BME280;36264;51.296;-0.602;2023-02-19T08:07:35;102477.22;;;9.19;100.00
50356;BME280;36264;51.296;-0.602;2023-02-19T08:10:02;102498.84;;;9.30;100.00
50356;BME280;36264;51.296;-0.602;2023-02-19T08:13:00;102503.19;;;9.36;100.00
50356;BME280;36264;51.296;-0.602;2023-02-19T08:15:48;102506.66;;;9.38;100.00
50356;BME280;36264;51.296;-0.602;2023-02-19T08:18:15;102505.78;;;9.34;100.00
50356;BME280;36264;51.296;-0.602;2023-02-19T08:20:41;102520.47;;;9.37;100.00
50356;BME280;36264;51.296;-0.602;2023-02-19T08:23:07;102514.44;;;9.39;100.00
50356;BME280;36264;51.296;-0.602;2023-02-19T08:25:33;102509.25;;;9.44;100.00
50356;BME280;36264;51.296;-0.602;2023-02-19T08:27:58;102522.25;;;9.49;100.00
50356;BME280;36264;51.296;-0.602;2023-02-19T08:30:28;102536.94;;;9.53;100.00
50356;BME280;36264;51.296;-0.602;2023-02-19T08:32:54;102536.06;;;9.51;100.00
50356;BME280;36264;51.296;-0.602;2023-02-19T08:35:20;102539.53;;;9.50;100.00
50356;BME280;36264;51.296;-0.602;2023-02-19T08:37:45;102557.66;;;9.48;100.00
50356;BME280;36264;51.296;-0.602;2023-02-19T08:40:11;102551.59;;;9.41;100.00
50356;BME280;36264;51.296;-0.602;2023-02-19T08:42:37;102552.47;;;9.42;100.00
50356;BME280;36264;51.296;-0.602;2023-02-19T08:45:03;102576.72;;;9.52;100.00
50356;BME280;36264;51.296;-0.602;2023-02-19T08:47:28;102581.03;;;9.59;100.00
50356;BME280;36264;51.296;-0.602;2023-02-19T08:49:54;102562.91;;;9.70;100.00
50356;BME280;36264;51.296;-0.602;2023-02-19T08:52:19;102543.03;;;9.84;100.00
50356;BME280;36264;51.296;-0.602;2023-02-19T08:54:44;102550.84;;;9.96;100.00
50356;BME280;36264;51.296;-0.602;2023-02-19T08:57:10;102546.50;;;10.12;100.00
50356;BME280;36264;51.296;-0.602;2023-02-19T08:59:35;102552.56;;;10.18;100.00
50356;BME280;36264;51.296;-0.602;2023-02-19T09:02:00;102553.44;;;10.12;100.00
50356;BME280;36264;51.296;-0.602;2023-02-19T09:04:26;102544.75;;;10.11;100.00
50356;BME280;36264;51.296;-0.602;2023-02-19T09:06:51;102538.72;;;10.14;100.00
50356;BME280;36264;51.296;-0.602;2023-02-19T09:09:17;102536.13;;;10.19;100.00
50356;BME280;36264;51.296;-0.602;2023-02-19T09:11:42;102537.84;;;10.18;100.00
50356;BME280;36264;51.296;-0.602;2023-02-19T09:14:08;102551.69;;;10.22;100.00
50356;BME280;36264;51.296;-0.602;2023-02-19T09:16:34;102550.81;;;10.27;100.00
50356;BME280;36264;51.296;-0.602;2023-02-19T09:18:59;102555.16;;;10.30;100.00
50356;BME280;36264;51.296;-0.602;2023-02-19T09:21:25;102569.88;;;10.39;100.00
50356;BME280;36264;51.296;-0.602;2023-02-19T09:23:50;102566.41;;;10.46;100.00
50356;BME280;36264;51.296;-0.602;2023-02-19T09:26:16;102574.22;;;10.50;100.00
50356;BME280;36264;51.296;-0.602;2023-02-19T09:28:41;102582.84;;;10.54;100.00
50356;BME280;36264;51.296;-0.602;2023-02-19T09:31:09;102582.00;;;10.63;100.00
50356;BME280;36264;51.296;-0.602;2023-02-19T09:33:35;102579.41;;;10.63;100.00
50356;BME280;36264;51.296;-0.602;2023-02-19T09:36:01;102591.50;;;10.67;100.00
50356;BME280;36264;51.296;-0.602;2023-02-19T09:38:27;102578.50;;;10.70;100.00
50356;BME280;36264;51.296;-0.602;2023-02-19T09:40:55;102572.44;;;10.71;100.00
50356;BME280;36264;51.296;-0.602;2023-02-19T09:43:25;102580.22;;;10.82;100.00
50356;BME280;36264;51.296;-0.602;2023-02-19T09:46:00;102603.56;;;10.91;100.00
50356;BME280;36264;51.296;-0.602;2023-02-19T09:48:26;102594.06;;;10.90;100.00
50356;BME280;36264;51.296;-0.602;2023-02-19T09:50:52;102600.94;;;10.97;100.00
50356;BME280;36264;51.296;-0.602;2023-02-19T09:53:24;102606.13;;;11.00;100.00
50356;BME280;36264;51.296;-0.602;2023-02-19T09:55:51;102606.13;;;11.02;100.00
50356;BME280;36264;51.296;-0.602;2023-02-19T09:58:22;102608.72;;;11.13;100.00
50356;BME280;36264;51.296;-0.602;2023-02-19T10:00:50;102603.50;;;11.14;100.00
50356;BME280;36264;51.296;-0.602;2023-02-19T10:05:52;102624.31;;;11.17;100.00
50356;BME280;36264;51.296;-0.602;2023-02-19T10:08:19;102611.28;;;11.19;100.00
50356;BME280;36264;51.296;-0.602;2023-02-19T10:10:45;102611.28;;;11.23;100.00
50356;BME280;36264;51.296;-0.602;2023-02-19T10:14:15;102622.53;;;11.29;100.00
50356;BME280;36264;51.296;-0.602;2023-02-19T10:16:13;102621.66;;;11.30;100.00
50356;BME280;36264;51.296;-0.602;2023-02-19T10:18:42;102618.16;;;11.34;100.00
50356;BME280;36264;51.296;-0.602;2023-02-19T10:21:21;102630.25;;;11.46;100.00
50356;BME280;36264;51.296;-0.602;2023-02-19T10:23:51;102632.88;;;11.47;100.00
50356;BME280;36264;51.296;-0.602;2023-02-19T10:26:18;102631.06;;;11.57;100.00
50356;BME280;36264;51.296;-0.602;2023-02-19T10:28:44;102632.81;;;11.61;100.00
50356;BME280;36264;51.296;-0.602;2023-02-19T10:31:18;102639.69;;;11.65;100.00
50356;BME280;36264;51.296;-0.602;2023-02-19T10:33:54;102646.63;;;11.71;100.00
50356;BME280;36264;51.296;-0.602;2023-02-19T10:38:53;102638.81;;;11.71;100.00
50356;BME280;36264;51.296;-0.602;2023-02-19T10:41:21;102636.09;;;11.88;100.00
50356;BME280;36264;51.296;-0.602;2023-02-19T10:46:25;102648.22;;;12.00;100.00
50356;BME280;36264;51.296;-0.602;2023-02-19T10:48:59;102649.06;;;12.00;100.00
50356;BME280;36264;51.296;-0.602;2023-02-19T10:51:35;102660.28;;;12.13;100.00
50356;BME280;36264;51.296;-0.602;2023-02-19T10:54:16;102641.97;;;12.21;100.00
50356;BME280;36264;51.296;-0.602;2023-02-19T10:56:43;102639.44;;;12.13;100.00
50356;BME280;36264;51.296;-0.602;2023-02-19T11:02:16;102612.59;;;12.05;100.00
50356;BME280;36264;51.296;-0.602;2023-02-19T11:07:26;102633.31;;;12.19;100.00
50356;BME280;36264;51.296;-0.602;2023-02-19T11:09:52;102637.56;;;12.30;100.00
50356;BME280;36264;51.296;-0.602;2023-02-19T11:12:29;102641.75;;;12.53;100.00
50356;BME280;36264;51.296;-0.602;2023-02-19T11:14:55;102616.56;;;12.49;100.00
50356;BME280;36264;51.296;-0.602;2023-02-19T11:17:26;102626.94;;;12.55;100.00
50356;BME280;36264;51.296;-0.602;2023-02-19T11:19:57;102637.31;;;12.63;100.00
50356;BME280;36264;51.296;-0.602;2023-02-19T11:22:30;102645.06;;;12.69;100.00
50356;BME280;36264;51.296;-0.602;2023-02-19T11:27:34;102649.41;;;12.65;100.00
50356;BME280;36264;51.296;-0.602;2023-02-19T11:30:41;102634.63;;;12.69;100.00
50356;BME280;36264;51.296;-0.602;2023-02-19T11:35:37;102638.19;;;12.59;100.00
50356;BME280;36264;51.296;-0.602;2023-02-19T11:38:07;102635.53;;;12.65;100.00
50356;BME280;36264;51.296;-0.602;2023-02-19T11:45:57;102637.06;;;12.84;100.00
50356;BME280;36264;51.296;-0.602;2023-02-19T11:53:49;102638.75;;;12.90;100.00
50356;BME280;36264;51.296;-0.602;2023-02-19T11:56:24;102637.91;;;12.90;100.00
50356;BME280;36264;51.296;-0.602;2023-02-19T12:10:22;102626.06;;;13.38;100.00
50356;BME280;36264;51.296;-0.602;2023-02-19T12:27:15;102591.31;;;13.33;100.00
50356;BME280;36264;51.296;-0.602;2023-02-19T12:30:02;102579.91;;;13.42;100.00
50356;BME280;36264;51.296;-0.602;2023-02-19T12:38:43;102559.28;;;13.83;97.56
50356;BME280;36264;51.296;-0.602;2023-02-19T12:44:20;102556.88;;;13.70;100.00
50356;BME280;36264;51.296;-0.602;2023-02-19T12:46:51;102556.03;;;13.67;100.00
50356;BME280;36264;51.296;-0.602;2023-02-19T12:49:39;102555.13;;;13.71;100.00
50356;BME280;36264;51.296;-0.602;2023-02-19T12:52:16;102562.03;;;13.73;100.00
50356;BME280;36264;51.296;-0.602;2023-02-19T12:54:46;102559.31;;;13.81;100.00
50356;BME280;36264;51.296;-0.602;2023-02-19T12:57:30;102560.06;;;13.91;100.00
50356;BME280;36264;51.296;-0.602;2023-02-19T13:03:08;102555.56;;;13.99;99.46
50356;BME280;36264;51.296;-0.602;2023-02-19T13:05:52;102559.03;;;13.98;100.00
50356;BME280;36264;51.296;-0.602;2023-02-19T13:08:36;102556.38;;;14.01;100.00
50356;BME280;36264;51.296;-0.602;2023-02-19T13:13:41;102557.22;;;14.02;100.00
50356;BME280;36264;51.296;-0.602;2023-02-19T13:16:12;102565.97;;;14.01;100.00
50356;BME280;36264;51.296;-0.602;2023-02-19T13:18:46;102563.31;;;14.04;100.00
50356;BME280;36264;51.296;-0.602;2023-02-19T13:21:13;102571.91;;;14.10;100.00
50356;BME280;36264;51.296;-0.602;2023-02-19T13:24:07;102554.44;;;14.14;100.00
50356;BME280;36264;51.296;-0.602;2023-02-19T13:37:31;102530.97;;;14.61;96.87
50356;BME280;36264;51.296;-0.602;2023-02-19T13:40:02;102531.84;;;14.58;99.26
50356;BME280;36264;51.296;-0.602;2023-02-19T13:42:35;102537.06;;;14.58;98.44
50356;BME280;36264;51.296;-0.602;2023-02-19T13:45:03;102521.53;;;14.50;97.14
50356;BME280;36264;51.296;-0.602;2023-02-19T13:50:29;102520.09;;;14.81;99.33
50356;BME280;36264;51.296;-0.602;2023-02-19T13:53:00;102520.03;;;14.84;97.73
50356;BME280;36264;51.296;-0.602;2023-02-19T14:00:51;102516.59;;;14.82;96.07
50356;BME280;36264;51.296;-0.602;2023-02-19T14:03:53;102516.31;;;14.96;91.82
50356;BME280;36264;51.296;-0.602;2023-02-19T14:06:20;102508.41;;;14.99;97.96
50356;BME280;36264;51.296;-0.602;2023-02-19T14:08:57;102510.69;;;15.13;97.10
50356;BME280;36264;51.296;-0.602;2023-02-19T14:14:33;102492.06;;;15.27;94.14
50356;BME280;36264;51.296;-0.602;2023-02-19T14:30:57;102498.28;;;15.23;89.30
50356;BME280;36264;51.296;-0.602;2023-02-19T14:33:31;102483.50;;;15.20;88.15
50356;BME280;36264;51.296;-0.602;2023-02-19T14:36:25;102482.28;;;15.35;87.35
50356;BME280;36264;51.296;-0.602;2023-02-19T14:38:58;102475.28;;;15.37;88.95
50356;BME280;36264;51.296;-0.602;2023-02-19T14:41:26;102489.16;;;15.39;90.09
50356;BME280;36264;51.296;-0.602;2023-02-19T14:43:56;102483.75;;;15.47;89.52
50356;BME280;36264;51.296;-0.602;2023-02-19T14:46:33;102478.34;;;15.54;89.24
50356;BME280;36264;51.296;-0.602;2023-02-19T14:51:49;102469.13;;;15.38;83.10
50356;BME280;36264;51.296;-0.602;2023-02-19T14:54:19;102472.63;;;15.38;88.76
50356;BME280;36264;51.296;-0.602;2023-02-19T14:56:48;102471.63;;;15.43;90.36
50356;BME280;36264;51.296;-0.602;2023-02-19T15:01:43;102469.22;;;15.33;89.21
50356;BME280;36264;51.296;-0.602;2023-02-19T15:04:20;102478.81;;;15.34;87.90
50356;BME280;36264;51.296;-0.602;2023-02-19T15:06:46;102471.22;;;15.22;87.50
50356;BME280;36264;51.296;-0.602;2023-02-19T15:09:12;102478.34;;;15.17;89.77
50356;BME280;36264;51.296;-0.602;2023-02-19T15:11:40;102473.00;;;15.21;89.30
50356;BME280;36264;51.296;-0.602;2023-02-19T15:14:16;102464.28;;;15.21;88.58
50356;BME280;36264;51.296;-0.602;2023-02-19T15:16:43;102471.44;;;15.13;88.61
50356;BME280;36264;51.296;-0.602;2023-02-19T15:19:11;102472.28;;;15.15;89.37